createdAt,value
2023-05-20T00:00:32.854Z,5.50
2023-05-20T00:01:37.738Z,5.05
2023-05-20T00:02:44.095Z,4.22
2023-05-20T00:03:49.218Z,4.68
2023-05-20T00:04:54.730Z,5.00
2023-05-20T00:05:58.975Z,4.50
2023-05-20T00:07:02.906Z,4.90
2023-05-20T00:08:10.238Z,4.70
2023-05-20T00:09:13.861Z,5.07
2023-05-20T00:10:18.107Z,5.20
2023-05-20T00:11:21.568Z,4.70
2023-05-20T00:12:25.774Z,4.85
2023-05-20T00:13:29.352Z,5.28
2023-05-20T00:14:33.694Z,5.13
2023-05-20T00:15:37.619Z,4.68
2023-05-20T00:16:43.226Z,4.93
2023-05-20T00:17:47.456Z,5.05
2023-05-20T00:18:51.820Z,4.75
2023-05-20T00:19:56.577Z,5.20
2023-05-20T00:21:01.178Z,5.15
2023-05-20T00:22:07.183Z,4.47
2023-05-20T00:23:11.779Z,4.80
2023-05-20T00:24:15.206Z,4.63
2023-05-20T00:25:20.234Z,4.80
2023-05-20T00:26:23.958Z,4.70
2023-05-20T00:27:28.267Z,5.25
2023-05-20T00:28:32.076Z,5.40
2023-05-20T00:29:36.742Z,5.35
2023-05-20T00:30:41.577Z,5.68
2023-05-20T00:31:45.856Z,4.65
2023-05-20T00:32:50.303Z,5.10
2023-05-20T00:33:54.475Z,4.13
2023-05-20T00:34:59.927Z,4.85
2023-05-20T00:36:04.173Z,5.45
2023-05-20T00:37:08.265Z,5.20
2023-05-20T00:38:13.166Z,4.85
2023-05-20T00:39:17.180Z,5.15
2023-05-20T00:40:23.803Z,4.82
2023-05-20T00:41:27.985Z,4.80
2023-05-20T00:42:32.263Z,5.28
2023-05-20T00:43:35.836Z,5.05
2023-05-20T00:44:40.604Z,4.78
2023-05-20T00:45:44.526Z,4.93
2023-05-20T00:46:50.139Z,5.30
2023-05-20T00:47:53.796Z,5.50
2023-05-20T00:48:59.298Z,4.93
2023-05-20T00:50:04.775Z,4.88
2023-05-20T00:51:09.662Z,4.95
2023-05-20T00:52:13.190Z,5.10
2023-05-20T00:53:19.789Z,4.82
2023-05-20T00:54:23.913Z,5.53
2023-05-20T00:55:28.498Z,4.53
2023-05-20T00:56:32.383Z,5.22
2023-05-20T00:57:37.665Z,4.63
2023-05-20T00:58:42.016Z,5.10
2023-05-20T00:59:48.199Z,4.88
2023-05-20T01:00:51.927Z,5.30
2023-05-20T01:01:57.661Z,5.63
2023-05-20T01:03:01.333Z,4.85
2023-05-20T01:04:06.961Z,5.30
2023-05-20T01:05:12.082Z,5.30
2023-05-20T01:06:16.663Z,5.65
2023-05-20T01:07:21.008Z,5.50
2023-05-20T01:08:27.117Z,5.30
2023-05-20T01:09:33.547Z,5.70
2023-05-20T01:10:43.926Z,5.53
2023-05-20T01:11:53.263Z,5.05
2023-05-20T01:13:04.700Z,4.90
2023-05-20T01:14:09.488Z,4.68
2023-05-20T01:15:17.039Z,5.47
2023-05-20T01:16:23.478Z,6.68
2023-05-20T01:17:30.022Z,4.78
2023-05-20T01:18:35.015Z,5.22
2023-05-20T01:19:44.458Z,5.78
2023-05-20T01:20:53.621Z,5.55
2023-05-20T01:21:59.660Z,5.50
2023-05-20T01:23:06.064Z,4.93
2023-05-20T01:24:09.772Z,4.78
2023-05-20T01:25:15.019Z,6.30
2023-05-20T01:26:19.962Z,6.25
2023-05-20T01:27:25.104Z,5.25
2023-05-20T01:28:31.143Z,5.93
2023-05-20T01:29:37.239Z,5.80
2023-05-20T01:30:50.143Z,6.38
2023-05-20T01:31:59.288Z,5.18
2023-05-20T01:33:07.613Z,6.15
2023-05-20T01:34:13.052Z,5.80
2023-05-20T01:35:18.254Z,7.30
2023-05-20T01:36:25.460Z,5.55
2023-05-20T01:37:29.348Z,7.32
2023-05-20T01:38:36.582Z,6.20
2023-05-20T01:39:41.834Z,5.57
2023-05-20T01:40:47.675Z,5.10
2023-05-20T01:41:51.148Z,6.20
2023-05-20T01:42:57.371Z,5.40
2023-05-20T01:44:01.469Z,6.10
2023-05-20T01:45:07.886Z,6.13
2023-05-20T01:46:11.410Z,5.28
2023-05-20T01:47:16.421Z,5.07
2023-05-20T01:48:20.076Z,5.28
2023-05-20T01:49:24.626Z,5.00
2023-05-20T01:50:28.147Z,5.18
2023-05-20T01:51:33.827Z,5.32
2023-05-20T01:52:37.392Z,6.03
2023-05-20T01:53:43.786Z,5.47
2023-05-20T01:54:52.275Z,5.60
2023-05-20T01:55:56.341Z,5.55
2023-05-20T01:56:59.815Z,5.90
2023-05-20T01:58:05.019Z,6.30
2023-05-20T01:59:14.306Z,5.53
2023-05-20T02:00:20.002Z,5.20
2023-05-20T02:01:25.994Z,5.00
2023-05-20T02:02:32.534Z,5.38
2023-05-20T02:03:37.453Z,4.90
2023-05-20T02:04:48.136Z,5.22
2023-05-20T02:05:51.015Z,5.65
2023-05-20T02:06:54.734Z,5.65
2023-05-20T02:07:57.846Z,5.75
2023-05-20T02:09:04.640Z,5.03
2023-05-20T02:10:10.174Z,5.75
2023-05-20T02:11:15.172Z,5.65
2023-05-20T02:12:19.012Z,5.18
2023-05-20T02:13:24.359Z,5.53
2023-05-20T02:14:27.718Z,5.07
2023-05-20T02:15:32.317Z,5.93
2023-05-20T02:16:37.699Z,5.95
2023-05-20T02:17:43.808Z,4.80
2023-05-20T02:18:48.095Z,5.72
2023-05-20T02:19:52.371Z,5.00
2023-05-20T02:20:56.631Z,5.18
2023-05-20T02:22:00.175Z,5.53
2023-05-20T02:23:06.099Z,5.22
2023-05-20T02:24:10.966Z,4.97
2023-05-20T02:25:15.006Z,5.30
2023-05-20T02:26:18.543Z,5.65
2023-05-20T02:27:22.989Z,5.80
2023-05-20T02:28:26.616Z,4.90
2023-05-20T02:29:31.522Z,5.50
2023-05-20T02:30:35.014Z,5.13
2023-05-20T02:31:39.742Z,4.85
2023-05-20T02:32:42.732Z,5.75
2023-05-20T02:33:47.315Z,5.30
2023-05-20T02:34:51.709Z,5.72
2023-05-20T02:35:54.707Z,4.80
2023-05-20T02:36:59.232Z,5.22
2023-05-20T02:38:02.331Z,5.35
2023-05-20T02:39:06.818Z,5.43
2023-05-20T02:40:12.382Z,4.80
2023-05-20T02:41:16.516Z,5.93
2023-05-20T02:42:19.534Z,4.70
2023-05-20T02:43:23.549Z,4.97
2023-05-20T02:44:26.847Z,5.40
2023-05-20T02:45:31.433Z,4.88
2023-05-20T02:46:35.058Z,4.75
2023-05-20T02:47:39.820Z,4.60
2023-05-20T02:48:43.035Z,5.28
2023-05-20T02:49:48.047Z,5.60
2023-05-20T02:50:51.343Z,5.30
2023-05-20T02:51:55.547Z,4.60
2023-05-20T02:52:59.364Z,4.97
2023-05-20T02:54:03.983Z,4.80
2023-05-20T02:55:08.533Z,4.60
2023-05-20T02:56:14.464Z,5.68
2023-05-20T02:57:17.853Z,4.50
2023-05-20T02:58:26.931Z,5.35
2023-05-20T02:59:30.348Z,4.80
2023-05-20T03:01:18.805Z,4.78
2023-05-20T03:07:08.500Z,5.05
2023-05-20T03:09:00.611Z,4.63
2023-05-20T03:10:45.421Z,4.80
2023-05-20T03:12:00.067Z,4.25
2023-05-20T03:13:43.747Z,4.53
2023-05-20T03:15:25.434Z,4.85
2023-05-20T03:16:30.335Z,4.32
2023-05-20T03:17:34.874Z,4.10
2023-05-20T03:18:37.799Z,3.92
2023-05-20T03:19:42.544Z,4.40
2023-05-20T03:20:47.378Z,4.50
2023-05-20T03:21:52.249Z,4.40
2023-05-20T03:23:00.602Z,4.93
2023-05-20T03:24:06.391Z,4.40
2023-05-20T03:25:11.943Z,4.47
2023-05-20T03:26:16.843Z,5.05
2023-05-20T03:27:22.321Z,3.67
2023-05-20T03:28:29.201Z,3.92
2023-05-20T03:29:44.929Z,4.75
2023-05-20T03:30:50.301Z,4.53
2023-05-20T03:31:54.875Z,4.88
2023-05-20T03:33:06.678Z,4.25
2023-05-20T03:34:10.389Z,4.43
2023-05-20T03:35:14.917Z,4.35
2023-05-20T03:36:19.953Z,4.10
2023-05-20T03:37:23.503Z,4.57
2023-05-20T03:38:28.285Z,3.80
2023-05-20T03:39:32.116Z,4.57
2023-05-20T03:40:36.577Z,4.28
2023-05-20T03:41:40.729Z,4.00
2023-05-20T03:42:46.469Z,4.28
2023-05-20T03:43:49.870Z,4.55
2023-05-20T03:44:54.489Z,4.13
2023-05-20T03:45:57.741Z,3.58
2023-05-20T03:47:02.359Z,4.10
2023-05-20T03:48:06.210Z,3.45
2023-05-20T03:49:16.852Z,3.50
2023-05-20T03:50:19.986Z,4.20
2023-05-20T03:51:24.625Z,4.20
2023-05-20T03:52:27.682Z,4.25
2023-05-20T03:53:32.330Z,3.85
2023-05-20T03:54:36.845Z,3.97
2023-05-20T03:55:41.287Z,3.53
2023-05-20T03:56:45.155Z,4.47
2023-05-20T03:57:50.604Z,4.45
2023-05-20T03:58:54.128Z,4.43
2023-05-20T03:59:58.604Z,4.00
2023-05-20T04:01:01.915Z,4.03
2023-05-20T04:02:08.918Z,4.28
2023-05-20T04:03:13.013Z,3.90
2023-05-20T04:04:17.447Z,3.78
2023-05-20T04:05:34.787Z,3.80
2023-05-20T04:07:03.123Z,3.65
2023-05-20T04:08:11.075Z,3.55
2023-05-20T04:09:22.933Z,3.85
2023-05-20T04:10:26.456Z,4.30
2023-05-20T04:11:30.679Z,4.25
2023-05-20T04:12:36.389Z,4.10
2023-05-20T04:13:42.432Z,4.00
2023-05-20T04:14:46.049Z,3.60
2023-05-20T04:15:52.156Z,3.90
2023-05-20T04:16:56.636Z,4.28
2023-05-20T04:18:02.039Z,4.25
2023-05-20T04:19:05.678Z,3.70
2023-05-20T04:20:12.379Z,3.38
2023-05-20T04:21:23.325Z,3.88
2023-05-20T04:22:28.009Z,3.95
2023-05-20T04:23:32.088Z,3.72
2023-05-20T04:24:38.868Z,3.88
2023-05-20T04:25:43.958Z,3.28
2023-05-20T04:26:53.295Z,4.47
2023-05-20T04:28:02.370Z,3.90
2023-05-20T04:29:08.766Z,4.13
2023-05-20T04:30:14.135Z,3.92
2023-05-20T04:31:21.678Z,3.70
2023-05-20T04:32:25.606Z,3.47
2023-05-20T04:33:31.514Z,3.90
2023-05-20T04:34:37.723Z,4.45
2023-05-20T04:35:43.574Z,3.80
2023-05-20T04:36:49.860Z,3.55
2023-05-20T04:37:56.180Z,4.05
2023-05-20T04:38:59.303Z,3.75
2023-05-20T04:40:06.733Z,3.72
2023-05-20T04:41:15.166Z,3.25
2023-05-20T04:42:22.640Z,3.78
2023-05-20T04:43:25.687Z,3.65
2023-05-20T04:44:46.680Z,3.33
2023-05-20T04:45:50.366Z,3.22
2023-05-20T04:46:54.884Z,3.78
2023-05-20T04:47:59.451Z,3.55
2023-05-20T04:49:05.076Z,3.80
2023-05-20T04:50:11.251Z,3.65
2023-05-20T04:51:16.638Z,3.78
2023-05-20T04:52:21.816Z,3.70
2023-05-20T04:53:26.855Z,3.70
2023-05-20T04:54:30.264Z,3.80
2023-05-20T04:55:38.366Z,3.72
2023-05-20T04:56:41.896Z,3.40
2023-05-20T04:57:46.921Z,3.80
2023-05-20T04:58:50.164Z,3.85
2023-05-20T04:59:59.564Z,4.00
2023-05-20T05:01:03.606Z,3.65
2023-05-20T05:02:08.700Z,3.15
2023-05-20T05:03:13.347Z,3.58
2023-05-20T05:04:18.604Z,3.50
2023-05-20T05:05:30.115Z,3.40
2023-05-20T05:06:35.964Z,3.50
2023-05-20T05:07:40.367Z,3.45
2023-05-20T05:08:44.571Z,4.10
2023-05-20T05:09:48.102Z,3.95
2023-05-20T05:10:52.404Z,3.83
2023-05-20T05:11:55.924Z,3.65
2023-05-20T05:13:01.473Z,3.33
2023-05-20T05:14:05.060Z,3.42
2023-05-20T05:15:11.735Z,4.18
2023-05-20T05:16:15.121Z,3.55
2023-05-20T05:17:19.972Z,3.90
2023-05-20T05:18:23.342Z,3.65
2023-05-20T05:19:27.431Z,3.65
2023-05-20T05:20:30.803Z,3.50
2023-05-20T05:21:35.531Z,3.50
2023-05-20T05:22:40.633Z,3.75
2023-05-20T05:23:45.515Z,5.32
2023-05-20T05:25:26.868Z,4.20
2023-05-20T05:26:38.270Z,3.25
2023-05-20T05:28:02.166Z,3.80
2023-05-20T05:29:11.799Z,4.10
2023-05-20T05:30:22.890Z,4.32
2023-05-20T05:31:27.909Z,4.30
2023-05-20T05:32:31.240Z,5.25
2023-05-20T05:33:36.771Z,5.18
2023-05-20T05:34:40.278Z,5.32
2023-05-20T05:35:45.745Z,5.15
2023-05-20T05:36:48.970Z,4.85
2023-05-20T05:37:53.780Z,5.88
2023-05-20T05:38:57.378Z,5.47
2023-05-20T05:40:01.831Z,4.57
2023-05-20T05:41:07.667Z,5.38
2023-05-20T05:42:11.722Z,5.38
2023-05-20T05:43:16.597Z,5.05
2023-05-20T05:44:39.187Z,4.85
2023-05-20T05:45:49.659Z,4.47
2023-05-20T05:46:53.041Z,4.95
2023-05-20T05:47:57.599Z,5.05
2023-05-20T05:49:01.000Z,5.03
2023-05-20T05:50:06.411Z,4.22
2023-05-20T05:51:09.706Z,4.55
2023-05-20T05:52:13.728Z,4.57
2023-05-20T05:53:18.906Z,5.20
2023-05-20T05:54:26.466Z,5.10
2023-05-20T05:55:30.084Z,5.47
2023-05-20T05:56:34.994Z,5.30
2023-05-20T05:57:38.514Z,5.80
2023-05-20T05:58:43.339Z,5.20
2023-05-20T05:59:46.762Z,5.03
2023-05-20T06:00:55.263Z,5.72
2023-05-20T06:01:58.837Z,5.53
2023-05-20T06:03:03.397Z,5.25
2023-05-20T06:04:07.498Z,5.85
2023-05-20T06:05:12.538Z,5.32
2023-05-20T06:06:17.685Z,5.50
2023-05-20T06:07:21.252Z,5.93
2023-05-20T06:08:31.676Z,6.15
2023-05-20T06:09:37.320Z,5.28
2023-05-20T06:10:41.770Z,5.82
2023-05-20T06:11:48.889Z,5.72
2023-05-20T06:12:55.160Z,5.72
2023-05-20T06:13:59.116Z,6.63
2023-05-20T06:15:04.020Z,5.45
2023-05-20T06:16:09.019Z,6.07
2023-05-20T06:17:15.693Z,6.85
2023-05-20T06:18:19.371Z,6.85
2023-05-20T06:19:24.154Z,7.10
2023-05-20T06:20:27.823Z,6.85
2023-05-20T06:21:33.872Z,6.38
2023-05-20T06:22:37.237Z,7.00
2023-05-20T06:23:41.023Z,6.47
2023-05-20T06:24:44.017Z,7.45
2023-05-20T06:25:48.822Z,6.28
2023-05-20T06:26:52.750Z,7.35
2023-05-20T06:27:57.178Z,7.65
2023-05-20T06:29:02.142Z,7.75
2023-05-20T06:30:06.798Z,8.25
2023-05-20T06:31:12.681Z,8.20
2023-05-20T06:32:16.465Z,8.27
2023-05-20T06:33:32.953Z,8.05
2023-05-20T06:34:36.289Z,7.93
2023-05-20T06:35:41.226Z,8.52
2023-05-20T06:36:44.531Z,8.77
2023-05-20T06:37:48.964Z,8.77
2023-05-20T06:39:01.104Z,8.13
2023-05-20T06:40:06.018Z,7.82
2023-05-20T06:41:09.252Z,8.65
2023-05-20T06:42:13.030Z,9.10
2023-05-20T06:43:16.334Z,7.88
2023-05-20T06:44:32.083Z,8.50
2023-05-20T06:45:44.154Z,8.10
2023-05-20T06:46:48.901Z,9.77
2023-05-20T06:47:54.602Z,9.73
2023-05-20T06:48:59.776Z,8.50
2023-05-20T06:50:03.350Z,9.85
2023-05-20T06:51:09.808Z,8.05
2023-05-20T06:52:13.256Z,8.65
2023-05-20T06:53:20.929Z,8.95
2023-05-20T06:54:26.813Z,8.75
2023-05-20T06:55:31.382Z,8.45
2023-05-20T06:56:34.975Z,8.52
2023-05-20T06:57:39.578Z,9.13
2023-05-20T06:58:56.867Z,9.02
2023-05-20T07:00:00.763Z,8.55
2023-05-20T07:01:09.813Z,9.15
2023-05-20T07:02:14.739Z,8.23
2023-05-20T07:03:19.446Z,8.55
2023-05-20T07:04:36.304Z,8.32
2023-05-20T07:05:43.712Z,7.13
2023-05-20T07:06:47.597Z,7.70
2023-05-20T07:07:52.169Z,9.35
2023-05-20T07:08:55.631Z,8.18
2023-05-20T07:10:00.300Z,8.93
2023-05-20T07:11:04.335Z,8.65
2023-05-20T07:12:09.552Z,8.65
2023-05-20T07:13:13.828Z,8.60
2023-05-20T07:14:19.006Z,7.72
2023-05-20T07:15:22.192Z,8.30
2023-05-20T07:16:26.732Z,8.38
2023-05-20T07:17:32.054Z,8.60
2023-05-20T07:18:36.959Z,8.60
2023-05-20T07:19:40.888Z,8.27
2023-05-20T07:20:45.854Z,9.05
2023-05-20T07:21:51.093Z,9.40
2023-05-20T07:22:54.780Z,8.57
2023-05-20T07:23:59.260Z,9.23
2023-05-20T07:25:05.894Z,9.10
2023-05-20T07:26:10.179Z,8.77
2023-05-20T07:27:13.304Z,8.50
2023-05-20T07:28:18.822Z,8.70
2023-05-20T07:29:27.883Z,9.65
2023-05-20T07:30:31.507Z,9.15
2023-05-20T07:31:36.799Z,8.70
2023-05-20T07:32:41.998Z,9.43
2023-05-20T07:33:47.136Z,9.35
2023-05-20T07:34:53.168Z,9.85
2023-05-20T07:35:56.496Z,8.90
2023-05-20T07:37:01.650Z,9.25
2023-05-20T07:38:06.146Z,9.80
2023-05-20T07:39:15.004Z,10.80
2023-05-20T07:40:19.487Z,9.27
2023-05-20T07:41:30.914Z,8.90
2023-05-20T07:42:35.324Z,9.10
2023-05-20T07:43:39.029Z,9.60
2023-05-20T07:44:43.685Z,9.15
2023-05-20T07:45:47.026Z,9.13
2023-05-20T07:46:51.768Z,9.73
2023-05-20T07:47:56.826Z,9.00
2023-05-20T07:49:01.500Z,9.68
2023-05-20T07:50:05.331Z,9.50
2023-05-20T07:51:09.418Z,9.13
2023-05-20T07:52:13.820Z,9.10
2023-05-20T07:53:19.918Z,9.32
2023-05-20T07:54:26.144Z,10.25
2023-05-20T07:55:29.592Z,9.52
2023-05-20T07:56:35.160Z,9.90
2023-05-20T07:57:38.726Z,9.38
2023-05-20T07:58:44.071Z,9.65
2023-05-20T07:59:48.019Z,9.20
2023-05-20T08:00:52.614Z,8.23
2023-05-20T08:01:57.089Z,9.38
2023-05-20T08:03:03.254Z,10.50
2023-05-20T08:04:06.826Z,9.60
2023-05-20T08:05:11.773Z,9.82
2023-05-20T08:06:16.050Z,8.75
2023-05-20T08:07:20.868Z,9.10
2023-05-20T08:08:24.728Z,8.88
2023-05-20T08:09:33.740Z,10.02
2023-05-20T08:10:38.894Z,9.77
2023-05-20T08:11:47.508Z,9.82
2023-05-20T08:13:14.870Z,9.30
2023-05-20T08:14:20.157Z,9.10
2023-05-20T08:15:24.428Z,9.48
2023-05-20T08:16:28.530Z,8.73
2023-05-20T08:17:33.451Z,9.45
2023-05-20T08:18:39.718Z,9.32
2023-05-20T08:19:42.848Z,9.65
2023-05-20T08:20:46.915Z,9.50
2023-05-20T08:21:50.041Z,9.85
2023-05-20T08:22:54.259Z,8.95
2023-05-20T08:23:59.001Z,8.75
2023-05-20T08:25:01.773Z,9.27
2023-05-20T08:26:06.167Z,8.50
2023-05-20T08:27:09.919Z,8.40
2023-05-20T08:28:14.668Z,8.23
2023-05-20T08:29:25.093Z,10.88
2023-05-20T08:30:32.337Z,8.45
2023-05-20T08:31:38.317Z,8.27
2023-05-20T08:32:43.045Z,9.25
2023-05-20T08:33:48.736Z,8.38
2023-05-20T08:34:53.430Z,8.05
2023-05-20T08:35:58.016Z,9.20
2023-05-20T08:37:01.957Z,9.68
2023-05-20T08:38:06.546Z,9.40
2023-05-20T08:39:10.490Z,7.82
2023-05-20T08:40:16.023Z,8.10
2023-05-20T08:41:29.052Z,8.05
2023-05-20T08:42:34.536Z,8.85
2023-05-20T08:43:38.570Z,8.65
2023-05-20T08:44:44.466Z,8.27
2023-05-20T08:45:47.807Z,8.45
2023-05-20T08:46:53.493Z,8.75
2023-05-20T08:47:58.929Z,8.07
2023-05-20T08:49:07.512Z,8.18
2023-05-20T08:50:12.847Z,7.95
2023-05-20T08:51:20.343Z,8.05
2023-05-20T08:52:24.581Z,7.30
2023-05-20T08:53:32.064Z,9.18
2023-05-20T08:54:45.500Z,8.63
2023-05-20T08:55:54.760Z,7.55
2023-05-20T08:57:00.713Z,8.05
2023-05-20T08:58:05.344Z,7.18
2023-05-20T08:59:11.844Z,8.00
2023-05-20T09:00:18.694Z,7.10
2023-05-20T09:01:32.471Z,7.07
2023-05-20T09:02:40.562Z,7.55
2023-05-20T09:03:45.728Z,8.00
2023-05-20T09:04:52.724Z,7.18
2023-05-20T09:06:05.265Z,8.45
2023-05-20T09:07:10.129Z,8.10
2023-05-20T09:08:15.690Z,7.63
2023-05-20T09:10:49.663Z,7.80
2023-05-20T09:11:54.472Z,7.30
2023-05-20T09:12:58.605Z,7.90
2023-05-20T09:14:03.228Z,8.65
2023-05-20T09:15:08.277Z,7.85
2023-05-20T09:16:13.775Z,7.75
2023-05-20T09:17:22.957Z,7.30
2023-05-20T09:18:31.636Z,7.80
2023-05-20T09:19:35.167Z,7.75
2023-05-20T09:20:41.761Z,8.07
2023-05-20T09:21:48.439Z,7.15
2023-05-20T09:22:54.697Z,8.55
2023-05-20T09:23:59.856Z,7.25
2023-05-20T09:25:08.157Z,6.95
2023-05-20T09:26:13.766Z,7.88
2023-05-20T09:27:18.898Z,6.10
2023-05-20T09:28:25.673Z,6.90
2023-05-20T09:29:35.845Z,6.97
2023-05-20T09:30:39.355Z,6.22
2023-05-20T09:31:45.016Z,6.47
2023-05-20T09:32:54.379Z,5.45
2023-05-20T09:33:59.224Z,6.18
2023-05-20T09:35:04.519Z,6.32
2023-05-20T09:36:12.806Z,4.90
2023-05-20T09:37:30.484Z,5.50
2023-05-20T09:38:39.327Z,5.13
2023-05-20T09:39:51.169Z,4.50
2023-05-20T09:40:57.037Z,5.03
2023-05-20T09:42:07.796Z,5.70
2023-05-20T09:43:13.585Z,4.70
2023-05-20T09:44:38.601Z,5.00
2023-05-20T09:45:43.986Z,4.32
2023-05-20T09:46:49.074Z,4.38
2023-05-20T09:47:54.596Z,4.43
2023-05-20T09:48:59.288Z,4.90
2023-05-20T09:50:04.673Z,4.47
2023-05-20T09:51:11.580Z,4.80
2023-05-20T09:52:20.693Z,4.00
2023-05-20T09:53:45.327Z,5.17
2023-05-20T09:57:23.826Z,4.55
2023-05-20T09:58:44.686Z,4.37
2023-05-20T10:00:36.349Z,4.20
2023-05-20T10:01:41.607Z,4.50
2023-05-20T10:02:48.036Z,4.27
2023-05-20T10:03:54.377Z,4.82
2023-05-20T10:05:01.459Z,4.40
2023-05-20T10:06:28.171Z,4.20
2023-05-20T10:07:49.862Z,4.40
2023-05-20T10:09:14.118Z,3.97
2023-05-20T10:10:34.187Z,3.92
2023-05-20T10:11:49.589Z,5.20
2023-05-20T10:13:05.857Z,4.40
2023-05-20T10:14:33.410Z,4.30
2023-05-20T10:15:48.002Z,4.60
2023-05-20T10:17:00.296Z,5.10
2023-05-20T10:18:13.246Z,4.77
2023-05-20T10:19:30.638Z,4.30
2023-05-20T10:20:34.375Z,4.57
2023-05-20T10:21:41.108Z,4.47
2023-05-20T10:22:45.640Z,4.57
2023-05-20T10:23:50.438Z,4.73
2023-05-20T10:25:01.121Z,5.40
2023-05-20T10:26:07.893Z,4.80
2023-05-20T10:27:15.086Z,4.80
2023-05-20T10:28:26.283Z,4.70
2023-05-20T10:29:45.473Z,4.77
2023-05-20T10:30:51.493Z,5.00
2023-05-20T10:31:56.401Z,5.13
2023-05-20T10:33:07.408Z,5.45
2023-05-20T10:34:18.599Z,5.30
2023-05-20T10:35:27.938Z,5.63
2023-05-20T10:36:32.450Z,5.00
2023-05-20T10:37:45.966Z,4.53
2023-05-20T10:38:54.084Z,3.90
2023-05-20T10:40:12.481Z,4.63
2023-05-20T10:41:29.620Z,4.73
2023-05-20T10:42:34.933Z,4.40
2023-05-20T10:43:38.495Z,6.05
2023-05-20T10:44:44.614Z,4.20
2023-05-20T10:45:52.228Z,4.67
2023-05-20T10:48:21.900Z,4.80
2023-05-20T10:49:47.301Z,5.27
2023-05-20T10:50:51.122Z,4.77
2023-05-20T10:51:55.774Z,4.83
2023-05-20T10:53:25.614Z,5.30
2023-05-20T10:54:37.021Z,4.50
2023-05-20T10:55:43.329Z,5.20
2023-05-20T10:56:53.169Z,5.23
2023-05-20T10:57:58.000Z,5.57
2023-05-20T10:59:03.600Z,5.20
2023-05-20T11:00:11.136Z,4.90
2023-05-20T11:01:27.927Z,5.30
2023-05-20T11:02:35.835Z,4.90
2023-05-20T11:03:41.439Z,4.90
2023-05-20T11:04:46.789Z,4.70
2023-05-20T11:05:52.039Z,4.87
2023-05-20T11:06:57.680Z,5.10
2023-05-20T11:08:13.977Z,4.60
2023-05-20T11:09:31.360Z,4.82
2023-05-20T11:10:37.647Z,4.97
2023-05-20T11:11:43.663Z,4.23
2023-05-20T11:12:48.628Z,4.23
2023-05-20T11:13:54.182Z,4.47
2023-05-20T11:14:57.524Z,4.87
2023-05-20T11:16:04.904Z,4.97
2023-05-20T11:17:09.532Z,4.75
2023-05-20T11:18:16.952Z,5.80
2023-05-20T11:19:21.912Z,5.20
2023-05-20T11:20:28.088Z,4.47
2023-05-20T11:23:16.105Z,4.97
2023-05-20T11:24:27.435Z,4.80
2023-05-20T11:25:41.411Z,5.07
2023-05-20T11:26:45.542Z,5.27
2023-05-20T11:27:51.325Z,4.73
2023-05-20T11:28:55.352Z,4.60
2023-05-20T11:30:00.487Z,5.03
2023-05-20T11:31:05.293Z,4.73
2023-05-20T11:32:11.104Z,5.17
2023-05-20T11:33:17.206Z,5.40
2023-05-20T11:34:26.407Z,5.53
2023-05-20T11:35:32.550Z,5.00
2023-05-20T11:36:42.383Z,5.20
2023-05-20T11:37:46.438Z,5.13
2023-05-20T11:38:54.474Z,4.73
2023-05-20T11:40:08.630Z,4.70
2023-05-20T11:41:13.191Z,4.30
2023-05-20T11:42:16.555Z,4.80
2023-05-20T11:43:22.458Z,5.90
2023-05-20T11:44:27.649Z,5.03
2023-05-20T11:45:42.281Z,5.17
2023-05-20T11:46:49.157Z,4.60
2023-05-20T11:48:03.988Z,5.00
2023-05-20T11:49:09.744Z,4.30
2023-05-20T11:50:18.948Z,4.03
2023-05-20T11:51:28.904Z,4.93
2023-05-20T11:52:35.675Z,5.13
2023-05-20T11:53:43.217Z,4.30
2023-05-20T11:54:54.774Z,4.70
2023-05-20T11:56:00.729Z,4.33
2023-05-20T11:57:07.119Z,4.30
2023-05-20T11:58:11.551Z,5.10
2023-05-20T11:59:17.127Z,4.60
2023-05-20T12:00:21.668Z,4.77
2023-05-20T12:01:37.826Z,5.10
2023-05-20T12:02:41.609Z,4.80
2023-05-20T12:03:46.285Z,4.40
2023-05-20T12:04:50.206Z,4.67
2023-05-20T12:05:55.804Z,5.00
2023-05-20T12:06:59.301Z,4.90
2023-05-20T12:08:05.234Z,5.10
2023-05-20T12:09:10.329Z,4.50
2023-05-20T12:10:17.962Z,4.60
2023-05-20T12:11:22.287Z,4.93
2023-05-20T12:12:27.118Z,4.20
2023-05-20T12:13:35.568Z,5.10
2023-05-20T12:14:40.119Z,5.47
2023-05-20T12:15:45.044Z,5.30
2023-05-20T12:16:48.357Z,4.57
2023-05-20T12:17:54.489Z,5.20
2023-05-20T12:18:57.555Z,4.87
2023-05-20T12:20:02.821Z,5.07
2023-05-20T12:21:08.039Z,4.30
2023-05-20T12:22:13.030Z,5.60
2023-05-20T12:23:16.469Z,4.27
2023-05-20T12:24:20.720Z,5.50
2023-05-20T12:25:32.668Z,5.00
2023-05-20T12:26:36.730Z,4.10
2023-05-20T12:27:40.674Z,4.63
2023-05-20T12:28:43.372Z,5.43
2023-05-20T12:29:48.593Z,4.77
2023-05-20T12:30:51.858Z,5.13
2023-05-20T12:31:57.163Z,4.70
2023-05-20T12:33:00.334Z,4.50
2023-05-20T12:34:06.009Z,4.90
2023-05-20T12:35:10.589Z,4.00
2023-05-20T12:36:15.222Z,4.73
2023-05-20T12:37:20.245Z,4.80
2023-05-20T12:38:25.123Z,5.40
2023-05-20T12:39:28.540Z,5.32
2023-05-20T12:40:35.399Z,4.43
2023-05-20T12:41:39.344Z,4.03
2023-05-20T12:42:43.712Z,4.38
2023-05-20T12:43:46.982Z,4.60
2023-05-20T12:44:51.656Z,5.57
2023-05-20T12:45:55.566Z,4.20
2023-05-20T12:47:01.148Z,4.73
2023-05-20T12:48:10.038Z,4.43
2023-05-20T12:49:15.050Z,4.03
2023-05-20T12:50:20.092Z,4.33
2023-05-20T12:51:25.300Z,4.60
2023-05-20T12:52:30.620Z,4.00
2023-05-20T12:53:35.981Z,3.90
2023-05-20T12:54:39.663Z,4.10
2023-05-20T12:55:46.082Z,4.37
2023-05-20T12:56:50.637Z,4.13
2023-05-20T12:57:57.795Z,4.13
2023-05-20T12:59:02.765Z,4.20
2023-05-20T13:00:07.981Z,4.90
2023-05-20T13:01:20.290Z,5.17
2023-05-20T13:02:25.033Z,4.23
2023-05-20T13:03:29.500Z,4.43
2023-05-20T13:04:35.721Z,4.17
2023-05-20T13:05:42.716Z,4.40
2023-05-20T13:06:48.125Z,5.10
2023-05-20T13:07:54.911Z,4.40
2023-05-20T13:08:59.742Z,4.50
2023-05-20T13:10:13.683Z,4.97
2023-05-20T13:11:20.533Z,4.28
2023-05-20T13:12:26.365Z,4.03
2023-05-20T13:13:31.734Z,4.70
2023-05-20T13:14:36.527Z,4.20
2023-05-20T13:15:44.004Z,5.43
2023-05-20T13:16:48.223Z,4.70
2023-05-20T13:17:56.358Z,4.17
2023-05-20T13:19:05.154Z,4.43
2023-05-20T13:20:14.135Z,4.80
2023-05-20T13:21:18.893Z,3.67
2023-05-20T13:22:24.475Z,4.13
2023-05-20T13:23:29.825Z,4.47
2023-05-20T13:24:36.509Z,4.07
2023-05-20T13:25:41.672Z,4.50
2023-05-20T13:26:50.494Z,3.70
2023-05-20T13:27:54.882Z,4.00
2023-05-20T13:29:00.329Z,4.40
2023-05-20T13:30:08.225Z,4.50
2023-05-20T13:31:12.753Z,4.20
2023-05-20T13:32:19.382Z,4.80
2023-05-20T13:33:24.525Z,4.37
2023-05-20T13:34:34.224Z,4.17
2023-05-20T13:35:38.417Z,4.80
2023-05-20T13:36:44.681Z,4.40
2023-05-20T13:37:50.999Z,4.07
2023-05-20T13:38:57.017Z,5.40
2023-05-20T13:40:04.370Z,3.70
2023-05-20T13:41:10.295Z,3.87
2023-05-20T13:42:17.292Z,4.40
2023-05-20T13:43:21.419Z,4.30
2023-05-20T13:44:27.164Z,4.00
2023-05-20T13:45:31.980Z,4.60
2023-05-20T13:46:38.655Z,4.80
2023-05-20T13:47:43.686Z,3.80
2023-05-20T13:48:48.948Z,4.10
2023-05-20T13:49:53.744Z,4.73
2023-05-20T13:50:58.968Z,4.27
2023-05-20T13:52:03.714Z,3.60
2023-05-20T13:53:13.258Z,4.07
2023-05-20T13:54:18.867Z,4.23
2023-05-20T13:55:25.185Z,4.57
2023-05-20T13:56:29.525Z,4.00
2023-05-20T13:57:36.487Z,3.90
2023-05-20T13:58:41.410Z,3.93
2023-05-20T13:59:47.965Z,4.10
2023-05-20T14:00:52.729Z,4.30
2023-05-20T14:02:01.696Z,4.23
2023-05-20T14:03:10.374Z,4.07
2023-05-20T14:04:17.857Z,4.03
2023-05-20T14:05:27.744Z,4.57
2023-05-20T14:06:48.781Z,4.20
2023-05-20T14:07:52.564Z,3.57
2023-05-20T14:08:59.949Z,3.70
2023-05-20T14:12:01.127Z,3.63
2023-05-20T14:13:12.516Z,3.83
2023-05-20T14:14:23.325Z,3.60
2023-05-20T14:27:28.401Z,3.50
2023-05-20T14:40:59.369Z,4.10
2023-05-20T14:56:37.936Z,4.27
2023-05-20T14:58:27.552Z,3.60
2023-05-20T15:52:36.607Z,4.03
2023-05-20T15:53:40.751Z,4.10
2023-05-20T15:54:44.355Z,4.38
2023-05-20T15:55:48.124Z,4.60
2023-05-20T15:56:50.713Z,4.67
2023-05-20T15:57:54.398Z,4.70
2023-05-20T15:58:58.120Z,3.80
2023-05-20T16:00:01.606Z,3.93
2023-05-20T16:01:11.451Z,5.17
2023-05-20T16:02:14.787Z,4.63
2023-05-20T16:03:17.815Z,4.60
2023-05-20T16:04:21.451Z,4.00
2023-05-20T16:05:25.727Z,4.82
2023-05-20T16:06:29.230Z,4.53
2023-05-20T16:07:31.788Z,4.50
2023-05-20T16:08:37.596Z,4.60
2023-05-20T16:09:41.144Z,4.63
2023-05-20T16:10:43.587Z,4.07
2023-05-20T16:11:47.306Z,3.60
2023-05-20T16:12:49.638Z,4.38
2023-05-20T16:13:53.113Z,3.40
2023-05-20T16:14:55.859Z,3.95
2023-05-20T16:15:59.862Z,4.47
2023-05-20T16:17:02.390Z,4.00
2023-05-20T16:18:05.920Z,3.67
2023-05-20T16:19:08.514Z,4.10
2023-05-20T16:20:12.401Z,3.13
2023-05-20T16:21:15.043Z,3.10
2023-05-20T16:22:19.982Z,3.38
2023-05-20T16:23:23.388Z,3.88
2023-05-20T16:24:27.255Z,3.60
2023-05-20T16:25:30.589Z,3.90
2023-05-20T16:26:33.040Z,3.33
2023-05-20T16:27:36.445Z,3.60
2023-05-20T16:28:38.864Z,3.90
2023-05-20T16:29:42.571Z,4.40
2023-05-20T16:30:44.996Z,3.67
2023-05-20T16:31:48.407Z,3.00